createdAt,value
2019-02-22T00:04:53.726Z,84.33
2019-02-22T00:10:01.766Z,82.81
2019-02-22T00:15:09.985Z,79.48
2019-02-22T00:20:18.289Z,84.76
2019-02-22T00:25:26.397Z,85.64
2019-02-22T00:30:34.579Z,87.02
2019-02-22T00:35:42.806Z,84.05
2019-02-22T00:40:50.943Z,83.81
2019-02-22T00:45:59.443Z,85.36
2019-02-22T00:51:07.666Z,82.85
2019-02-22T00:56:15.874Z,82.62
2019-02-22T01:01:24.426Z,75.20
2019-02-22T01:06:32.696Z,73.69
2019-02-22T01:11:40.717Z,75.64
2019-02-22T01:16:48.900Z,71.01
2019-02-22T01:21:57.130Z,68.99
2019-02-22T01:27:05.337Z,76.09
2019-02-22T01:32:13.429Z,67.76
2019-02-22T01:37:22.099Z,64.35
2019-02-22T01:42:30.249Z,62.78
2019-02-22T01:47:38.447Z,60.38
2019-02-22T01:52:46.598Z,59.70
2019-02-22T01:57:54.786Z,57.17
2019-02-22T02:03:02.854Z,50.93
2019-02-22T02:08:12.101Z,53.06
2019-02-22T02:13:20.258Z,50.06
2019-02-22T02:18:28.438Z,48.56
2019-02-22T02:23:36.550Z,49.50
2019-02-22T02:28:44.688Z,44.55
2019-02-22T02:33:52.805Z,50.62
2019-02-22T02:39:01.045Z,48.05
2019-02-22T02:44:09.145Z,44.34
2019-02-22T02:49:17.289Z,36.71
2019-02-22T02:54:25.349Z,37.98
2019-02-22T02:59:33.518Z,37.21
2019-02-22T03:04:41.653Z,38.42
2019-02-22T03:09:49.790Z,43.75
2019-02-22T03:14:58.001Z,42.36
2019-02-22T03:20:06.144Z,38.10
2019-02-22T03:25:14.209Z,39.64
2019-02-22T03:30:22.346Z,41.50
2019-02-22T03:35:30.493Z,41.28
2019-02-22T03:40:38.723Z,36.64
2019-02-22T03:45:47.073Z,38.29
2019-02-22T03:50:55.758Z,35.63
2019-02-22T03:56:03.945Z,34.83
2019-02-22T04:01:12.175Z,38.32
2019-02-22T04:06:20.793Z,30.83
2019-02-22T04:11:28.897Z,32.25
2019-02-22T04:16:36.958Z,29.97
2019-02-22T04:21:45.165Z,24.80
2019-02-22T04:26:53.570Z,24.51
2019-02-22T04:32:01.832Z,17.87
2019-02-22T04:37:09.967Z,16.20
2019-02-22T04:42:18.167Z,11.71
2019-02-22T04:47:26.294Z,10.14
2019-02-22T04:52:34.432Z,9.27
2019-02-22T04:57:42.669Z,7.99
2019-02-22T05:02:50.925Z,8.44
2019-02-22T05:07:59.304Z,9.80
2019-02-22T05:13:07.555Z,6.38
2019-02-22T05:18:15.678Z,6.24
2019-02-22T05:23:23.908Z,6.02
2019-02-22T05:28:32.025Z,6.92
2019-02-22T05:33:40.234Z,6.38
2019-02-22T05:38:48.371Z,7.15
2019-02-22T05:43:57.058Z,6.73
2019-02-22T05:49:05.139Z,7.29
2019-02-22T05:54:13.364Z,7.30
2019-02-22T05:59:21.483Z,8.32
2019-02-22T06:04:29.591Z,10.11
2019-02-22T06:09:37.674Z,9.29
2019-02-22T06:14:45.867Z,10.03
2019-02-22T06:19:54.317Z,10.32
2019-02-22T06:25:02.649Z,11.77
2019-02-22T06:30:11.354Z,12.27
2019-02-22T06:35:19.515Z,13.01
2019-02-22T06:40:27.731Z,10.67
2019-02-22T06:45:35.847Z,10.28
2019-02-22T06:50:44.039Z,13.16
2019-02-22T06:55:52.898Z,15.45
2019-02-22T07:01:01.050Z,13.94
2019-02-22T07:06:09.058Z,10.42
2019-02-22T07:11:17.236Z,11.42
2019-02-22T07:16:25.737Z,12.94
2019-02-22T07:21:44.064Z,15.25
2019-02-22T07:26:41.773Z,13.80
2019-02-22T07:31:49.897Z,14.10
2019-02-22T07:36:58.062Z,15.40
2019-02-22T07:42:06.356Z,16.01
2019-02-22T07:47:14.873Z,17.44
2019-02-22T07:52:23.026Z,16.57
2019-02-22T07:57:31.163Z,14.74
2019-02-22T08:02:39.469Z,14.70
2019-02-22T08:07:48.034Z,13.49
2019-02-22T08:12:55.972Z,12.95
2019-02-22T08:18:04.113Z,10.97
2019-02-22T08:23:12.310Z,9.81
2019-02-22T08:28:20.789Z,6.70
2019-02-22T08:33:28.947Z,7.47
2019-02-22T08:38:37.009Z,8.77
2019-02-22T08:43:45.365Z,5.91
2019-02-22T08:48:53.465Z,6.71
2019-02-22T08:54:01.688Z,6.71
2019-02-22T08:59:09.982Z,6.24
2019-02-22T09:04:18.239Z,10.64
2019-02-22T09:09:26.622Z,8.19
2019-02-22T09:14:34.790Z,6.23
2019-02-22T09:19:43.106Z,5.46
2019-02-22T09:24:51.341Z,5.69
2019-02-22T09:29:59.540Z,6.29
2019-02-22T09:35:07.701Z,9.38
2019-02-22T09:40:15.925Z,6.26
2019-02-22T09:45:24.678Z,7.61
2019-02-22T09:50:32.661Z,14.93
2019-02-22T09:55:41.275Z,5.97
2019-02-22T10:00:49.751Z,11.40
2019-02-22T10:05:57.257Z,6.27
2019-02-22T10:11:05.562Z,7.19
2019-02-22T10:16:13.729Z,7.53
2019-02-22T10:21:21.949Z,6.30
2019-02-22T10:26:30.226Z,6.64
2019-02-22T10:31:38.373Z,8.97
2019-02-22T10:36:46.429Z,7.99
2019-02-22T10:41:55.234Z,12.01
2019-02-22T10:47:03.743Z,11.30
2019-02-22T10:52:12.045Z,10.89
2019-02-22T10:57:20.322Z,7.63
2019-02-22T11:02:28.532Z,10.48
2019-02-22T11:07:37.377Z,9.66
2019-02-22T11:12:44.522Z,7.28
2019-02-22T11:17:52.725Z,6.47
2019-02-22T11:23:00.965Z,6.64
2019-02-22T11:28:09.385Z,5.34
2019-02-22T11:33:17.650Z,10.82
2019-02-22T11:38:25.966Z,6.36
2019-02-22T11:43:34.266Z,5.77
2019-02-22T11:48:42.609Z,6.50
2019-02-22T11:53:50.929Z,9.27
2019-02-22T11:58:59.270Z,6.48
2019-02-22T12:04:07.777Z,5.46
2019-02-22T12:09:16.309Z,11.95
2019-02-22T12:14:24.494Z,8.91
2019-02-22T12:19:32.700Z,3.26
2019-02-22T12:24:40.998Z,4.48
2019-02-22T12:29:49.130Z,4.97
2019-02-22T12:34:57.378Z,3.98
2019-02-22T12:40:05.582Z,5.63
2019-02-22T12:45:14.129Z,5.68
2019-02-22T12:50:22.341Z,4.58
2019-02-22T12:55:30.705Z,4.63
2019-02-22T13:00:38.773Z,4.13
2019-02-22T13:05:47.245Z,7.18
2019-02-22T13:10:55.485Z,4.00
2019-02-22T13:16:03.725Z,4.04
2019-02-22T13:21:11.953Z,5.03
2019-02-22T13:26:20.185Z,5.06
2019-02-22T13:31:30.344Z,4.56
2019-02-22T13:36:36.296Z,5.78
2019-02-22T13:41:45.088Z,4.86
2019-02-22T13:46:53.595Z,3.50
2019-02-22T13:52:01.998Z,4.08
2019-02-22T13:57:10.670Z,4.28
2019-02-22T14:02:18.890Z,5.28
2019-02-22T14:07:27.455Z,5.24
2019-02-22T14:12:36.033Z,5.14
2019-02-22T14:17:45.646Z,4.94
2019-02-22T14:22:51.804Z,4.09
2019-02-22T14:28:00.151Z,4.03
2019-02-22T14:33:08.329Z,4.79
2019-02-22T14:38:16.779Z,4.67
2019-02-22T14:43:25.105Z,4.00
2019-02-22T14:48:33.242Z,4.79
2019-02-22T14:53:41.524Z,5.04
2019-02-22T14:58:49.825Z,5.43
2019-02-22T15:03:58.780Z,5.41
2019-02-22T15:09:07.069Z,6.89
2019-02-22T15:14:17.872Z,4.58
2019-02-22T15:19:23.029Z,3.94
2019-02-22T15:24:33.090Z,5.72
2019-02-22T15:29:38.975Z,5.43
2019-02-22T15:34:47.364Z,6.36
2019-02-22T15:39:55.295Z,4.59
2019-02-22T15:45:03.505Z,4.64
2019-02-22T15:50:11.759Z,8.18
2019-02-22T15:55:20.767Z,6.56
2019-02-22T16:00:29.478Z,6.48
2019-02-22T16:05:37.746Z,5.73
2019-02-22T16:10:45.890Z,6.35
2019-02-22T16:15:54.113Z,7.17
2019-02-22T16:21:02.312Z,5.71
2019-02-22T16:26:10.433Z,6.50
2019-02-22T16:31:18.610Z,4.91
2019-02-22T16:36:27.357Z,7.34
2019-02-22T16:41:35.670Z,6.74
2019-02-22T16:46:44.413Z,7.97
2019-02-22T16:51:52.696Z,53.97
2019-02-22T16:57:00.826Z,16.54
2019-02-22T17:02:08.926Z,6.40
2019-02-22T17:07:17.083Z,8.58
2019-02-22T17:12:25.237Z,7.68
2019-02-22T17:17:33.501Z,11.92
2019-02-22T17:22:41.772Z,12.77
2019-02-22T17:27:49.867Z,10.85
2019-02-22T17:32:58.065Z,15.88
2019-02-22T17:38:06.341Z,13.62
2019-02-22T17:43:14.467Z,25.48
2019-02-22T17:48:22.703Z,7.49
2019-02-22T17:53:30.944Z,11.69
2019-02-22T17:58:39.225Z,14.10
2019-02-22T18:03:47.504Z,6.87
2019-02-22T18:08:55.858Z,7.18
2019-02-22T18:14:04.442Z,7.74
2019-02-22T18:19:12.674Z,8.22
2019-02-22T18:24:20.853Z,6.44
2019-02-22T18:29:35.346Z,8.91
2019-02-22T18:34:36.679Z,7.19
2019-02-22T18:39:44.809Z,6.59
2019-02-22T18:44:53.070Z,6.26
2019-02-22T18:50:01.311Z,7.83
2019-02-22T18:55:09.861Z,7.42
2019-02-22T19:00:18.038Z,5.54
2019-02-22T19:05:26.546Z,7.69
2019-02-22T19:10:35.146Z,7.58
2019-02-22T19:15:43.201Z,9.03
2019-02-22T19:20:51.394Z,7.56
2019-02-22T19:26:00.366Z,7.95
2019-02-22T19:31:08.503Z,8.48
2019-02-22T19:36:16.774Z,6.91
2019-02-22T19:41:25.012Z,8.94
2019-02-22T19:46:33.264Z,6.74
2019-02-22T19:51:41.527Z,7.59
2019-02-22T19:56:49.846Z,7.23
2019-02-22T20:01:58.254Z,8.78
2019-02-22T20:07:06.977Z,8.07
2019-02-22T20:12:15.153Z,8.71
2019-02-22T20:17:23.602Z,5.46
2019-02-22T20:22:31.822Z,6.93
2019-02-22T20:27:40.062Z,6.88
2019-02-22T20:32:48.375Z,5.63
2019-02-22T20:37:56.646Z,6.27
2019-02-22T20:43:05.186Z,6.44
2019-02-22T20:48:13.611Z,6.53
2019-02-22T20:53:21.755Z,6.00
2019-02-22T20:58:30.023Z,5.07
2019-02-22T21:03:38.197Z,7.54
2019-02-22T21:08:46.525Z,7.47
2019-02-22T21:13:54.594Z,6.98
2019-02-22T21:19:02.902Z,5.51
2019-02-22T21:24:10.953Z,7.77
2019-02-22T21:29:19.148Z,6.73
2019-02-22T21:34:27.522Z,6.43
2019-02-22T21:39:35.822Z,6.18
2019-02-22T21:44:44.095Z,6.01
2019-02-22T21:49:52.426Z,5.93
2019-02-22T21:55:00.623Z,5.43
2019-02-22T22:00:08.832Z,5.58
2019-02-22T22:05:17.011Z,6.12
2019-02-22T22:10:25.178Z,7.26
2019-02-22T22:15:33.661Z,6.72
2019-02-22T22:20:41.817Z,5.91
2019-02-22T22:25:49.979Z,6.85
2019-02-22T22:30:58.171Z,5.86
2019-02-22T22:36:06.388Z,7.06
2019-02-22T22:41:14.670Z,6.38
2019-02-22T22:46:23.559Z,7.89
2019-02-22T22:51:32.229Z,8.38
2019-02-22T22:56:40.457Z,6.81
2019-02-22T23:01:48.963Z,6.31
2019-02-22T23:06:57.089Z,7.13
2019-02-22T23:12:05.385Z,5.93
2019-02-22T23:17:13.572Z,7.87
2019-02-22T23:22:21.808Z,6.33
2019-02-22T23:27:30.039Z,7.16
2019-02-22T23:32:38.385Z,7.18
2019-02-22T23:37:46.534Z,5.35
2019-02-22T23:42:54.906Z,7.76
2019-02-22T23:48:03.137Z,7.32
2019-02-22T23:53:11.361Z,7.03
2019-02-22T23:58:19.524Z,6.91
